createdAt,value
2023-03-12T00:00:06.753Z,3.85
2023-03-12T00:02:35.165Z,2.47
2023-03-12T00:05:02.044Z,4.10
2023-03-12T00:07:28.869Z,2.50
2023-03-12T00:09:55.769Z,2.78
2023-03-12T00:12:22.646Z,2.78
2023-03-12T00:14:50.083Z,2.57
2023-03-12T00:17:16.804Z,2.72
2023-03-12T00:19:43.846Z,3.50
2023-03-12T00:22:10.781Z,3.70
2023-03-12T00:24:37.850Z,2.35
2023-03-12T00:27:04.786Z,2.17
2023-03-12T00:29:31.842Z,2.15
2023-03-12T00:31:59.202Z,2.15
2023-03-12T00:34:26.039Z,2.60
2023-03-12T00:36:52.892Z,2.15
2023-03-12T00:39:19.860Z,2.70
2023-03-12T00:41:46.800Z,2.80
2023-03-12T00:44:13.607Z,2.05
2023-03-12T00:46:40.513Z,2.30
2023-03-12T00:49:07.487Z,2.47
2023-03-12T00:51:59.729Z,3.33
2023-03-12T00:54:26.562Z,3.80
2023-03-12T00:56:55.285Z,3.10
2023-03-12T00:59:22.196Z,2.95
2023-03-12T01:01:50.247Z,4.32
2023-03-12T01:04:17.245Z,2.50
2023-03-12T01:06:44.302Z,2.78
2023-03-12T01:09:11.212Z,2.80
2023-03-12T01:11:39.576Z,2.42
2023-03-12T01:14:08.993Z,2.80
2023-03-12T01:16:35.908Z,3.83
2023-03-12T01:19:04.289Z,3.10
2023-03-12T01:21:56.706Z,3.55
2023-03-12T01:24:23.641Z,2.45
2023-03-12T01:26:52.546Z,3.10
2023-03-12T01:29:20.284Z,2.93
2023-03-12T01:31:47.521Z,2.80
2023-03-12T01:34:15.244Z,4.35
2023-03-12T01:36:42.964Z,2.80
2023-03-12T01:39:09.751Z,2.40
2023-03-12T01:41:37.557Z,3.20
2023-03-12T01:44:06.390Z,2.45
2023-03-12T01:46:41.971Z,2.78
2023-03-12T01:49:34.475Z,4.03
2023-03-12T01:52:14.222Z,2.75
2023-03-12T01:54:58.152Z,2.60
2023-03-12T01:57:35.065Z,3.17
2023-03-12T02:00:30.532Z,3.13
2023-03-12T02:03:03.863Z,3.08
2023-03-12T02:05:38.980Z,2.35
2023-03-12T02:08:05.850Z,2.10
2023-03-12T02:10:32.822Z,3.33
2023-03-12T02:12:59.761Z,4.32
2023-03-12T02:15:28.561Z,2.92
2023-03-12T02:17:56.504Z,3.53
2023-03-12T02:20:51.286Z,2.90
2023-03-12T02:23:25.596Z,2.58
2023-03-12T02:25:54.764Z,3.20
2023-03-12T02:28:25.067Z,3.13
2023-03-12T02:30:57.447Z,4.45
2023-03-12T02:33:24.405Z,2.17
2023-03-12T02:35:52.597Z,2.97
2023-03-12T02:38:47.654Z,4.20
2023-03-12T02:41:29.547Z,3.33
2023-03-12T02:44:09.766Z,3.78
2023-03-12T02:46:43.806Z,2.93
2023-03-12T02:49:12.519Z,3.10
2023-03-12T02:51:41.416Z,3.65
2023-03-12T02:54:09.900Z,4.72
2023-03-12T02:56:38.030Z,2.92
2023-03-12T02:59:06.559Z,4.73
2023-03-12T03:01:36.970Z,2.97
2023-03-12T03:04:07.174Z,3.80
2023-03-12T03:06:37.937Z,4.25
2023-03-12T03:09:05.772Z,5.57
2023-03-12T03:11:32.821Z,4.73
2023-03-12T03:14:05.602Z,4.20
2023-03-12T03:16:33.934Z,4.93
2023-03-12T03:19:04.811Z,3.90
2023-03-12T03:21:32.412Z,3.65
2023-03-12T03:24:01.432Z,4.53
2023-03-12T03:26:28.198Z,3.67
2023-03-12T03:28:55.514Z,4.18
2023-03-12T03:31:22.556Z,4.00
2023-03-12T03:33:49.979Z,4.20
2023-03-12T03:36:20.158Z,5.23
2023-03-12T03:38:56.686Z,4.28
2023-03-12T03:41:24.099Z,3.45
2023-03-12T03:43:58.712Z,4.07
2023-03-12T03:46:27.502Z,4.20
2023-03-12T03:49:00.231Z,3.70
2023-03-12T03:51:28.179Z,3.15
2023-03-12T03:54:00.232Z,5.13
2023-03-12T03:56:28.909Z,2.33
2023-03-12T03:58:58.526Z,3.65
2023-03-12T04:01:27.622Z,4.13
2023-03-12T04:03:56.454Z,3.17
2023-03-12T04:06:24.221Z,4.82
2023-03-12T04:08:51.237Z,4.15
2023-03-12T04:11:23.568Z,4.30
2023-03-12T04:13:50.806Z,3.37
2023-03-12T04:16:21.031Z,3.90
2023-03-12T04:18:49.892Z,2.75
2023-03-12T04:21:17.507Z,3.78
2023-03-12T04:23:45.662Z,4.25
2023-03-12T04:26:14.075Z,4.50
2023-03-12T04:28:41.134Z,3.28
2023-03-12T04:31:11.094Z,3.40
2023-03-12T04:33:42.737Z,2.60
2023-03-12T04:36:11.964Z,6.25
2023-03-12T04:38:40.993Z,3.07
2023-03-12T04:41:12.380Z,3.00
2023-03-12T04:43:44.612Z,4.05
2023-03-12T04:46:12.347Z,4.35
2023-03-12T04:48:40.610Z,3.08
2023-03-12T04:51:08.451Z,3.50
2023-03-12T04:53:35.429Z,2.50
2023-03-12T04:56:03.304Z,4.60
2023-03-12T04:58:32.571Z,3.55
2023-03-12T05:00:59.493Z,5.07
2023-03-12T05:03:28.916Z,4.97
2023-03-12T05:05:57.359Z,3.97
2023-03-12T05:08:25.894Z,2.92
2023-03-12T05:10:53.625Z,3.13
2023-03-12T05:13:23.091Z,3.15
2023-03-12T05:15:54.032Z,5.50
2023-03-12T05:18:21.630Z,3.60
2023-03-12T05:21:12.593Z,2.95
2023-03-12T05:23:40.368Z,2.97
2023-03-12T05:26:23.575Z,2.55
2023-03-12T05:28:53.647Z,3.40
2023-03-12T05:31:24.773Z,2.97
2023-03-12T05:33:53.198Z,4.03
2023-03-12T05:36:21.519Z,3.72
2023-03-12T05:38:49.007Z,4.07
2023-03-12T05:41:29.258Z,3.17
2023-03-12T05:44:02.726Z,4.72
2023-03-12T05:46:30.046Z,3.75
2023-03-12T05:48:58.966Z,3.30
2023-03-12T05:51:28.065Z,4.05
2023-03-12T05:53:54.999Z,4.00
2023-03-12T05:56:22.166Z,3.72
2023-03-12T05:58:49.404Z,3.70
2023-03-12T06:01:24.646Z,4.47
2023-03-12T06:03:53.017Z,5.40
2023-03-12T06:06:20.294Z,4.00
2023-03-12T06:08:48.113Z,4.18
2023-03-12T06:11:15.058Z,3.63
2023-03-12T06:13:42.246Z,3.72
2023-03-12T06:16:19.653Z,3.50
2023-03-12T06:18:54.117Z,4.53
2023-03-12T06:21:25.637Z,3.38
2023-03-12T06:23:53.728Z,3.78
2023-03-12T06:26:25.935Z,4.15
2023-03-12T06:28:52.890Z,4.22
2023-03-12T06:31:21.381Z,2.53
2023-03-12T06:33:50.719Z,3.88
2023-03-12T06:36:18.127Z,4.55
2023-03-12T06:38:45.058Z,3.65
2023-03-12T06:41:17.366Z,3.03
2023-03-12T06:43:45.054Z,3.93
2023-03-12T06:46:15.345Z,3.95
2023-03-12T06:48:42.659Z,3.70
2023-03-12T06:51:11.675Z,3.70
2023-03-12T06:53:41.097Z,3.13
2023-03-12T06:56:11.688Z,3.57
2023-03-12T06:58:39.163Z,3.55
2023-03-12T07:04:21.867Z,4.13
2023-03-12T07:06:49.104Z,3.22
2023-03-12T07:09:16.998Z,3.23
2023-03-12T07:11:44.434Z,2.78
2023-03-12T07:14:36.989Z,3.22
2023-03-12T07:17:03.898Z,3.05
2023-03-12T07:19:31.648Z,3.72
2023-03-12T07:21:59.235Z,2.17
2023-03-12T07:24:26.872Z,2.75
2023-03-12T07:26:54.132Z,2.00
2023-03-12T07:29:20.960Z,2.40
2023-03-12T07:31:51.756Z,2.33
2023-03-12T07:34:20.341Z,2.93
2023-03-12T07:36:47.337Z,3.85
2023-03-12T07:42:07.773Z,3.03
2023-03-12T07:44:36.251Z,3.40
2023-03-12T07:47:20.704Z,3.37
2023-03-12T07:49:50.067Z,5.05
2023-03-12T07:52:17.060Z,2.53
2023-03-12T07:54:44.072Z,1.90
2023-03-12T07:57:10.986Z,2.95
2023-03-12T08:00:03.196Z,2.97
2023-03-12T08:02:38.790Z,4.60
2023-03-12T08:05:06.750Z,2.33
2023-03-12T08:07:34.261Z,3.05
2023-03-12T08:10:04.147Z,3.95
2023-03-12T08:12:31.064Z,2.27
2023-03-12T08:14:57.827Z,2.90
2023-03-12T08:17:25.051Z,2.20
2023-03-12T08:19:51.987Z,2.65
2023-03-12T08:22:45.789Z,3.08
2023-03-12T08:25:15.160Z,2.20
2023-03-12T08:27:41.933Z,2.88
2023-03-12T08:30:12.941Z,2.70
2023-03-12T08:32:40.257Z,3.90
2023-03-12T08:35:07.351Z,4.13
2023-03-12T08:37:35.255Z,2.63
2023-03-12T08:40:02.145Z,3.55
2023-03-12T08:42:30.109Z,2.20
2023-03-12T08:44:57.052Z,2.50
2023-03-12T08:47:24.102Z,3.95
2023-03-12T08:49:50.918Z,3.07
2023-03-12T08:52:17.682Z,2.90
2023-03-12T08:54:44.639Z,2.83
2023-03-12T08:57:11.445Z,1.67
2023-03-12T08:59:38.866Z,3.10
2023-03-12T09:02:06.680Z,2.90
2023-03-12T09:04:33.625Z,3.67
2023-03-12T09:07:03.362Z,2.55
2023-03-12T09:09:30.175Z,2.35
2023-03-12T09:11:57.678Z,3.35
2023-03-12T09:15:02.613Z,2.90
2023-03-12T09:17:31.220Z,2.05
2023-03-12T09:19:58.192Z,2.75
2023-03-12T09:22:25.185Z,2.15
2023-03-12T09:24:52.012Z,1.92
2023-03-12T09:27:22.151Z,1.70
2023-03-12T09:29:59.338Z,2.25
2023-03-12T09:32:27.715Z,3.15
2023-03-12T09:34:57.732Z,2.30
2023-03-12T09:50:27.031Z,3.40
2023-03-12T09:53:05.487Z,3.95
2023-03-12T09:55:47.290Z,1.20
2023-03-12T09:58:27.932Z,3.35
2023-03-12T10:01:07.739Z,4.10
2023-03-12T10:03:47.275Z,5.67
2023-03-12T10:06:46.877Z,2.90
2023-03-12T10:09:17.222Z,4.35
2023-03-12T10:12:05.444Z,4.32
2023-03-12T10:14:51.134Z,3.72
2023-03-12T10:17:56.131Z,2.83
2023-03-12T10:20:29.603Z,3.55
2023-03-12T10:23:06.078Z,1.98
2023-03-12T10:26:12.887Z,5.60
2023-03-12T10:28:51.736Z,3.00
2023-03-12T10:31:23.399Z,2.33
2023-03-12T10:35:00.016Z,4.55
2023-03-12T10:37:38.315Z,3.55
2023-03-12T10:40:07.000Z,2.38
2023-03-12T10:42:33.801Z,3.00
2023-03-12T10:45:06.325Z,3.90
2023-03-12T10:47:35.989Z,6.43
2023-03-12T10:50:29.359Z,4.03
2023-03-12T10:53:23.538Z,2.85
2023-03-12T10:56:18.533Z,3.65
2023-03-12T10:58:51.149Z,5.93
2023-03-12T11:01:31.788Z,4.22
2023-03-12T11:04:15.400Z,2.42
2023-03-12T11:06:44.437Z,3.08
2023-03-12T11:09:36.375Z,3.47
2023-03-12T11:12:30.945Z,4.43
2023-03-12T11:14:58.804Z,3.80
2023-03-12T11:17:30.301Z,4.90
2023-03-12T11:20:25.231Z,4.22
2023-03-12T11:22:52.850Z,6.03
2023-03-12T11:25:28.892Z,3.97
2023-03-12T11:28:01.486Z,5.07
2023-03-12T11:30:38.622Z,5.70
2023-03-12T11:33:06.137Z,4.03
2023-03-12T11:36:03.484Z,3.97
2023-03-12T11:38:38.673Z,3.73
2023-03-12T11:41:11.902Z,5.32
2023-03-12T11:43:59.949Z,5.85
2023-03-12T11:46:55.677Z,5.95
2023-03-12T11:49:44.275Z,5.80
2023-03-12T11:52:11.051Z,2.67
2023-03-12T11:55:06.392Z,3.15
2023-03-12T11:57:36.262Z,3.58
2023-03-12T12:00:25.863Z,5.30
2023-03-12T12:03:05.466Z,2.88
2023-03-12T12:05:48.978Z,3.90
2023-03-12T12:08:18.647Z,3.83
2023-03-12T12:11:01.460Z,4.90
2023-03-12T12:13:43.449Z,5.38
2023-03-12T12:16:26.463Z,6.13
2023-03-12T12:19:50.728Z,3.40
2023-03-12T12:22:43.670Z,3.90
2023-03-12T12:25:33.358Z,4.78
2023-03-12T12:28:33.286Z,7.80
2023-03-12T12:31:44.526Z,3.67
2023-03-12T12:34:36.042Z,3.40
2023-03-12T12:37:42.859Z,4.15
2023-03-12T12:40:16.845Z,4.50
2023-03-12T12:43:22.351Z,3.85
2023-03-12T12:45:51.030Z,3.15
2023-03-12T12:48:27.484Z,4.23
2023-03-12T12:50:55.671Z,3.40
2023-03-12T12:53:37.398Z,8.00
2023-03-12T12:56:25.604Z,9.25
2023-03-12T12:59:11.693Z,3.30
2023-03-12T13:01:43.364Z,2.77
2023-03-12T13:04:16.155Z,3.85
2023-03-12T13:07:12.523Z,3.47
2023-03-12T13:09:50.502Z,2.72
2023-03-12T13:12:33.188Z,3.03
2023-03-12T13:15:03.617Z,3.30
2023-03-12T13:17:34.569Z,2.60
2023-03-12T13:20:19.665Z,5.80
2023-03-12T13:23:24.920Z,5.40
2023-03-12T13:26:02.661Z,3.90
2023-03-12T13:28:34.401Z,2.80
2023-03-12T13:31:21.278Z,4.97
2023-03-12T13:33:53.555Z,3.33
2023-03-12T13:39:27.703Z,4.07
2023-03-12T13:41:58.325Z,3.73
2023-03-12T13:44:28.573Z,4.18
2023-03-12T13:47:02.089Z,7.85
2023-03-12T13:49:58.143Z,2.20
2023-03-12T13:52:30.399Z,4.47
2023-03-12T13:55:21.160Z,2.53
2023-03-12T13:58:10.376Z,2.80
2023-03-12T14:00:47.965Z,3.55
2023-03-12T14:03:39.840Z,4.40
2023-03-12T14:06:19.245Z,4.45
2023-03-12T14:09:24.474Z,3.73
2023-03-12T14:12:14.279Z,10.20
2023-03-12T14:14:47.584Z,4.07
2023-03-12T14:17:25.544Z,5.13
2023-03-12T14:19:57.436Z,3.55
2023-03-12T14:22:26.079Z,3.47
2023-03-12T14:25:01.824Z,4.88
2023-03-12T14:27:34.507Z,5.30
2023-03-12T14:30:18.208Z,13.65
2023-03-12T14:32:49.738Z,4.63
2023-03-12T14:35:22.346Z,3.63
2023-03-12T14:37:58.863Z,10.60
2023-03-12T14:40:40.829Z,12.50
2023-03-12T14:43:20.604Z,4.00
2023-03-12T14:45:51.193Z,4.68
2023-03-12T14:48:35.429Z,3.70
2023-03-12T14:51:05.556Z,3.58
2023-03-12T14:53:38.262Z,4.25
2023-03-12T14:56:36.607Z,3.42
2023-03-12T14:59:24.212Z,8.23
2023-03-12T15:01:52.292Z,4.10
2023-03-12T15:04:24.178Z,3.72
2023-03-12T15:06:59.450Z,4.60
2023-03-12T15:09:29.668Z,3.35
2023-03-12T15:11:58.935Z,2.92
2023-03-12T15:14:30.761Z,4.07
2023-03-12T15:17:00.418Z,3.83
2023-03-12T15:19:35.524Z,4.53
2023-03-12T15:22:04.141Z,4.78
2023-03-12T15:24:39.414Z,5.05
2023-03-12T15:27:25.104Z,3.67
2023-03-12T15:29:53.176Z,4.93
2023-03-12T15:32:22.669Z,3.92
2023-03-12T15:34:50.516Z,3.50
2023-03-12T15:37:30.216Z,3.78
2023-03-12T15:46:01.772Z,3.00
2023-03-12T15:48:56.683Z,3.97
2023-03-12T15:51:35.828Z,5.35
2023-03-12T15:54:27.085Z,3.17
2023-03-12T15:56:55.120Z,2.47
2023-03-12T15:59:27.297Z,3.08
2023-03-12T16:01:57.631Z,3.95
2023-03-12T16:04:25.255Z,3.25
2023-03-12T16:06:55.902Z,3.33
2023-03-12T16:09:48.961Z,4.20
2023-03-12T16:12:16.605Z,3.30
2023-03-12T16:14:45.187Z,4.93
2023-03-12T16:17:16.558Z,4.55
2023-03-12T16:19:44.276Z,4.47
2023-03-12T16:22:11.612Z,5.45
2023-03-12T16:24:38.840Z,3.58
2023-03-12T16:27:06.945Z,3.08
2023-03-12T16:29:37.839Z,3.22
2023-03-12T16:32:14.709Z,5.40
2023-03-12T16:34:43.151Z,5.13
2023-03-12T16:37:12.185Z,4.25
2023-03-12T16:39:39.965Z,3.22
2023-03-12T16:42:20.794Z,4.13
2023-03-12T16:44:48.819Z,3.10
2023-03-12T16:47:16.012Z,5.43
2023-03-12T16:49:44.659Z,4.55
2023-03-12T16:52:38.232Z,4.05
2023-03-12T16:55:05.750Z,4.72
2023-03-12T16:57:36.561Z,5.27
2023-03-12T17:00:09.127Z,18.92
2023-03-12T17:02:37.771Z,9.52
2023-03-12T17:05:06.150Z,4.93
2023-03-12T17:07:34.840Z,4.75
2023-03-12T17:10:02.450Z,4.80
2023-03-12T17:12:35.441Z,3.53
2023-03-12T17:15:05.724Z,4.38
2023-03-12T17:17:33.728Z,4.05
2023-03-12T17:20:01.667Z,5.80
2023-03-12T17:22:29.495Z,4.57
2023-03-12T17:24:57.030Z,4.57
2023-03-12T17:27:29.948Z,6.75
2023-03-12T17:29:57.620Z,5.57
2023-03-12T17:32:25.384Z,5.30
2023-03-12T17:34:57.927Z,5.90
2023-03-12T17:37:25.484Z,6.28
2023-03-12T17:39:53.675Z,10.07
2023-03-12T17:42:21.551Z,10.20
2023-03-12T17:44:50.857Z,7.68
2023-03-12T17:47:18.891Z,4.97
2023-03-12T17:49:46.813Z,5.85
2023-03-12T17:52:14.612Z,6.53
2023-03-12T17:54:43.167Z,4.80
2023-03-12T17:57:13.958Z,5.07
2023-03-12T17:59:41.826Z,7.67
2023-03-12T18:02:11.636Z,5.15
2023-03-12T18:04:39.566Z,5.63
2023-03-12T18:07:07.984Z,4.65
2023-03-12T18:09:36.136Z,4.80
2023-03-12T18:12:05.626Z,4.90
2023-03-12T18:14:34.630Z,4.93
2023-03-12T18:17:02.006Z,5.18
2023-03-12T18:19:29.878Z,5.25
2023-03-12T18:21:57.869Z,4.88
2023-03-12T18:24:26.044Z,4.30
2023-03-12T18:26:53.860Z,5.68
2023-03-12T18:29:21.844Z,4.60
2023-03-12T18:31:50.640Z,5.68
2023-03-12T18:34:20.736Z,7.50
2023-03-12T18:36:48.465Z,5.83
2023-03-12T18:39:16.188Z,8.20
2023-03-12T18:41:43.859Z,7.97
2023-03-12T18:44:12.194Z,6.32
2023-03-12T18:46:42.431Z,10.25
2023-03-12T18:49:10.758Z,8.40
2023-03-12T18:51:39.024Z,14.43
2023-03-12T18:54:35.181Z,9.27
2023-03-12T18:57:04.247Z,9.27
2023-03-12T18:59:32.461Z,7.05
2023-03-12T19:02:02.947Z,5.60
2023-03-12T19:04:32.611Z,5.65
2023-03-12T19:07:02.661Z,6.63
2023-03-12T19:09:31.072Z,5.55
2023-03-12T19:11:59.092Z,6.50
2023-03-12T19:14:27.496Z,5.33
2023-03-12T19:16:56.011Z,3.83
2023-03-12T19:19:23.972Z,6.22
2023-03-12T19:21:51.617Z,5.57
2023-03-12T19:24:19.494Z,4.57
2023-03-12T19:26:46.798Z,5.60
2023-03-12T19:29:14.163Z,5.85
2023-03-12T19:31:46.620Z,6.07
2023-03-12T19:34:14.713Z,4.18
2023-03-12T19:36:42.507Z,4.30
2023-03-12T19:39:20.554Z,3.83
2023-03-12T19:41:50.627Z,4.15
2023-03-12T19:44:18.394Z,5.05
2023-03-12T19:46:45.956Z,4.93
2023-03-12T19:49:13.592Z,6.88
2023-03-12T19:51:41.163Z,4.47
2023-03-12T19:54:08.431Z,4.07
2023-03-12T19:56:37.835Z,5.07
2023-03-12T19:59:07.708Z,3.97
2023-03-12T20:01:36.163Z,4.65
2023-03-12T20:04:05.951Z,4.13
2023-03-12T20:06:35.201Z,5.50
2023-03-12T20:09:02.933Z,5.22
2023-03-12T20:11:30.577Z,5.10
2023-03-12T20:13:58.553Z,5.53
2023-03-12T20:16:25.917Z,8.37
2023-03-12T20:18:53.601Z,7.38
2023-03-12T20:21:22.073Z,6.50
2023-03-12T20:24:14.990Z,5.97
2023-03-12T20:26:45.045Z,6.38
2023-03-12T20:29:13.009Z,6.50
2023-03-12T20:31:43.841Z,8.32
2023-03-12T20:34:12.974Z,6.03
2023-03-12T20:36:41.282Z,9.18
2023-03-12T20:39:09.979Z,6.97
2023-03-12T20:41:39.989Z,7.10
2023-03-12T20:44:07.966Z,6.45
2023-03-12T20:49:29.973Z,6.13
2023-03-12T20:51:56.988Z,7.28
2023-03-12T20:54:24.912Z,6.90
2023-03-12T20:56:52.801Z,7.65
2023-03-12T20:59:21.808Z,8.32
2023-03-12T21:01:49.465Z,5.13
2023-03-12T21:04:21.046Z,9.88
2023-03-12T21:06:50.675Z,14.43
2023-03-12T21:09:18.995Z,14.20
2023-03-12T21:11:46.379Z,19.45
2023-03-12T21:14:14.065Z,21.33
2023-03-12T21:16:41.678Z,17.70
2023-03-12T21:19:09.328Z,16.80
2023-03-12T21:21:36.243Z,20.20
2023-03-12T21:24:03.506Z,15.70
2023-03-12T21:26:30.859Z,17.40
2023-03-12T21:29:01.407Z,16.45
2023-03-12T21:31:28.727Z,13.07
2023-03-12T21:33:58.557Z,15.52
2023-03-12T21:36:26.051Z,13.15
2023-03-12T21:38:54.254Z,15.80
2023-03-12T21:41:21.939Z,17.95
2023-03-12T21:43:48.835Z,16.43
2023-03-12T21:49:09.954Z,16.48
2023-03-12T21:51:39.104Z,15.75
2023-03-12T21:54:06.551Z,14.63
2023-03-12T21:56:33.412Z,13.27
2023-03-12T21:59:00.210Z,28.67
2023-03-12T22:01:27.825Z,19.02
2023-03-12T22:03:54.764Z,25.23
2023-03-12T22:06:22.276Z,37.92
2023-03-12T22:08:49.302Z,24.93
2023-03-12T22:11:18.315Z,26.00
2023-03-12T22:13:48.558Z,22.48
2023-03-12T22:16:16.008Z,24.73
2023-03-12T22:18:44.733Z,24.35
2023-03-12T22:21:23.352Z,26.10
2023-03-12T22:23:52.606Z,27.38
2023-03-12T22:26:24.066Z,27.73
2023-03-12T22:28:56.442Z,23.20
2023-03-12T22:31:28.576Z,25.65
2023-03-12T22:33:57.093Z,24.87
2023-03-12T22:36:25.473Z,22.80
2023-03-12T22:38:52.829Z,11.60
2023-03-12T22:41:44.567Z,15.50
2023-03-12T22:44:11.406Z,12.32
2023-03-12T22:46:40.055Z,11.53
2023-03-12T22:49:07.645Z,9.20
2023-03-12T22:51:34.639Z,11.80
2023-03-12T22:54:01.705Z,12.50
2023-03-12T22:56:28.961Z,15.38
2023-03-12T22:58:57.439Z,10.60
2023-03-12T23:01:26.503Z,11.50
2023-03-12T23:03:53.303Z,10.85
2023-03-12T23:06:22.967Z,10.48
2023-03-12T23:08:50.603Z,10.57
2023-03-12T23:11:19.400Z,11.83
2023-03-12T23:13:47.493Z,9.05
2023-03-12T23:16:18.115Z,11.20
2023-03-12T23:18:45.795Z,12.40
2023-03-12T23:21:22.859Z,11.60
2023-03-12T23:23:51.925Z,12.77
2023-03-12T23:26:23.503Z,11.10
2023-03-12T23:28:51.093Z,12.30
2023-03-12T23:31:18.191Z,11.73
2023-03-12T23:33:45.095Z,12.18
2023-03-12T23:36:15.299Z,11.37
2023-03-12T23:38:47.157Z,10.18
2023-03-12T23:41:19.003Z,11.65
2023-03-12T23:43:46.011Z,10.48
2023-03-12T23:46:14.549Z,12.27
2023-03-12T23:48:45.663Z,11.57
2023-03-12T23:51:21.423Z,8.70
2023-03-12T23:53:51.048Z,13.75
2023-03-12T23:56:24.618Z,10.38
2023-03-12T23:58:51.607Z,12.18
